Time;durP1;ratioP1;P1;durP2;ratioP2;P2;SDS_P1;SDS_P2;PMS_P1;PMS_P2;Temp;Humidity;BMP_temperature;BMP_pressure;BME280_temperature;BME280_humidity;BME280_pressure;Samples;Min_cycle;Max_cycle;Signal;HPM_P1;HPM_P2
2022/04/12 09:25:25;;;;;;;2.88;2.17;;;15.20;99.90;;;;;;5070549;28;20608;-64
2022/04/12 09:27:51;;;;;;;2.67;2.28;;;14.80;99.90;;;;;;5070618;28;20176;-64
2022/04/12 09:30:16;;;;;;;2.20;2.10;;;14.80;99.90;;;;;;5070529;28;20193;-64
2022/04/12 09:32:47;;;;;;;2.47;2.28;;;14.90;99.90;;;;;;5070484;28;20214;-64
2022/04/12 09:35:13;;;;;;;3.15;2.85;;;15.00;99.90;;;;;;5070510;28;20310;-64
2022/04/12 09:37:42;;;;;;;2.60;2.40;;;15.10;99.90;;;;;;5070464;28;20164;-64
2022/04/12 09:40:12;;;;;;;2.17;1.98;;;15.30;99.90;;;;;;5070324;28;20165;-64
2022/04/12 09:42:49;;;;;;;2.70;2.50;;;15.40;99.90;;;;;;5070290;28;20255;-64
2022/04/12 09:45:16;;;;;;;3.15;2.40;;;15.40;99.90;;;;;;5070156;28;20207;-64
2022/04/12 09:47:43;;;;;;;5.40;2.53;;;15.60;99.90;;;;;;5069064;28;20183;-64
2022/04/12 09:50:10;;;;;;;2.22;2.13;;;15.60;99.90;;;;;;5070201;28;20248;-64
2022/04/12 09:52:36;;;;;;;4.20;1.90;;;15.70;99.90;;;;;;5070147;28;20218;-64
2022/04/12 09:55:03;;;;;;;2.45;2.25;;;15.80;99.90;;;;;;5070061;28;20169;-64
2022/04/12 09:57:30;;;;;;;2.17;2.08;;;15.90;99.90;;;;;;5069985;28;20180;-64
2022/04/12 09:59:56;;;;;;;2.25;2.15;;;16.00;99.90;;;;;;5069981;28;20172;-64
2022/04/12 10:02:24;;;;;;;2.40;2.22;;;16.10;99.90;;;;;;5070005;28;20563;-64
2022/04/12 10:04:55;;;;;;;2.30;2.15;;;16.10;99.90;;;;;;5069746;28;20245;-64
2022/04/12 10:07:22;;;;;;;2.50;2.03;;;16.10;99.90;;;;;;5069849;28;20222;-64
2022/04/12 10:09:52;;;;;;;2.45;2.10;;;16.30;99.90;;;;;;5069747;28;20537;-64
2022/04/12 10:12:19;;;;;;;2.38;2.08;;;16.30;99.90;;;;;;5069683;28;20178;-64
2022/04/12 10:14:46;;;;;;;4.80;1.83;;;16.30;99.90;;;;;;5069696;28;20173;-64
2022/04/12 10:17:13;;;;;;;2.33;2.10;;;16.40;99.90;;;;;;5069587;28;20164;-64
2022/04/12 10:19:39;;;;;;;2.38;1.92;;;16.40;99.90;;;;;;5069521;28;20172;-64
2022/04/12 10:22:05;;;;;;;2.25;2.00;;;16.50;99.90;;;;;;5069468;28;20248;-64
2022/04/12 10:24:32;;;;;;;2.60;1.80;;;16.50;99.90;;;;;;5069127;28;20212;-64
2022/04/12 10:26:58;;;;;;;1.92;1.83;;;16.60;99.90;;;;;;5069385;28;20243;-64
2022/04/12 10:29:23;;;;;;;1.92;1.80;;;16.70;99.90;;;;;;5069298;28;20260;-64
2022/04/12 10:32:00;;;;;;;2.10;2.00;;;16.70;99.90;;;;;;5069311;28;20524;-64
2022/04/12 10:34:26;;;;;;;6.13;2.00;;;16.80;99.90;;;;;;5069236;28;20267;-64
2022/04/12 10:36:55;;;;;;;2.20;2.10;;;16.90;99.90;;;;;;5055580;28;20247;-64
2022/04/12 10:39:44;;;;;;;2.30;1.85;;;17.00;99.90;;;;;;5055977;28;20188;-64
2022/04/12 10:42:14;;;;;;;1.63;1.50;;;17.10;99.90;;;;;;5055897;28;20211;-64
2022/04/12 10:44:45;;;;;;;1.73;1.63;;;17.20;99.90;;;;;;5055663;28;20542;-64
2022/04/12 10:47:31;;;;;;;1.45;1.35;;;17.30;99.90;;;;;;5055749;28;20215;-64
2022/04/12 10:50:08;;;;;;;1.83;1.73;;;17.40;99.90;;;;;;5055724;28;20188;-64
2022/04/12 10:52:36;;;;;;;1.92;1.80;;;17.40;99.90;;;;;;5055704;28;20171;-64
2022/04/12 10:55:05;;;;;;;1.98;1.88;;;17.50;99.90;;;;;;5055624;28;20165;-64
2022/04/12 10:57:30;;;;;;;1.70;1.60;;;17.50;99.90;;;;;;5055628;28;20165;-64
2022/04/12 11:00:11;;;;;;;1.60;1.50;;;17.60;99.90;;;;;;5055604;28;20215;-64
2022/04/12 11:02:43;;;;;;;1.55;1.45;;;17.70;99.90;;;;;;5055548;28;20181;-64
2022/04/12 11:05:37;;;;;;;2.85;1.50;;;17.80;99.90;;;;;;5055358;28;20283;-64
2022/04/12 11:08:15;;;;;;;1.65;1.20;;;17.90;99.90;;;;;;5055392;28;20219;-64
2022/04/12 11:10:42;;;;;;;2.15;1.60;;;18.00;99.90;;;;;;5055385;28;20176;-64
2022/04/12 11:13:11;;;;;;;1.33;1.23;;;18.00;99.90;;;;;;5055297;28;20177;-64
2022/04/12 11:15:38;;;;;;;1.77;1.67;;;18.00;99.90;;;;;;5055204;28;20177;-64
2022/04/12 11:18:13;;;;;;;3.78;1.65;;;18.10;99.90;;;;;;5055191;28;20713;-64
2022/04/12 11:20:57;;;;;;;2.85;1.55;;;18.20;99.90;;;;;;5055131;28;20199;-64
2022/04/12 11:23:55;;;;;;;2.45;1.60;;;18.30;99.90;;;;;;5053651;28;20305;-64
2022/04/12 11:26:44;;;;;;;1.88;1.48;;;18.30;99.90;;;;;;5055162;28;20175;-64
2022/04/12 11:29:12;;;;;;;1.50;1.40;;;18.50;99.90;;;;;;5055071;28;20161;-64
2022/04/12 11:31:45;;;;;;;1.58;1.48;;;18.50;99.90;;;;;;5054954;28;20165;-64
2022/04/12 11:34:11;;;;;;;2.78;1.60;;;18.60;99.90;;;;;;5054915;28;20173;-64
2022/04/12 11:36:45;;;;;;;3.45;1.70;;;18.70;99.90;;;;;;5054713;28;20179;-64
2022/04/12 11:39:18;;;;;;;1.45;1.45;;;18.80;99.90;;;;;;5054741;28;20199;-64
2022/04/12 11:41:45;;;;;;;4.03;1.33;;;18.90;99.90;;;;;;5054684;28;20169;-64
2022/04/12 11:44:10;;;;;;;1.65;1.55;;;19.00;99.90;;;;;;5054562;28;20202;-64
2022/04/12 11:46:36;;;;;;;1.30;1.30;;;19.20;99.90;;;;;;5053990;28;20275;-64
2022/04/12 11:49:07;;;;;;;5.15;1.52;;;19.30;99.90;;;;;;5054250;28;20721;-64
2022/04/12 11:51:43;;;;;;;1.33;1.23;;;19.40;99.90;;;;;;5054682;28;20244;-64
2022/04/12 11:54:29;;;;;;;1.63;1.38;;;19.50;99.90;;;;;;5054605;28;20168;-64
2022/04/12 11:57:09;;;;;;;1.23;1.20;;;19.70;99.90;;;;;;5054507;28;20644;-64
2022/04/12 11:59:59;;;;;;;1.35;1.35;;;19.80;99.90;;;;;;5053127;28;20759;-64
2022/04/12 12:02:29;;;;;;;4.28;1.35;;;20.00;99.90;;;;;;5054487;28;20223;-64
2022/04/12 12:05:00;;;;;;;1.80;1.70;;;20.10;99.90;;;;;;5054264;28;20283;-65
2022/04/12 12:07:27;;;;;;;1.95;1.85;;;20.30;99.90;;;;;;5054309;28;20171;-64
2022/04/12 12:10:07;;;;;;;1.40;1.33;;;20.40;99.90;;;;;;5054214;28;20257;-64
2022/04/12 12:12:38;;;;;;;1.50;1.40;;;20.50;99.90;;;;;;5054194;28;20614;-64
2022/04/12 12:15:16;;;;;;;1.52;1.42;;;20.60;99.90;;;;;;5054197;28;20175;-64
2022/04/12 12:17:44;;;;;;;3.10;1.30;;;20.70;99.90;;;;;;5054103;28;20172;-64
2022/04/12 12:20:10;;;;;;;2.55;1.73;;;20.70;99.90;;;;;;5054001;28;20177;-64
2022/04/12 12:22:37;;;;;;;1.65;1.55;;;20.80;99.90;;;;;;5054031;28;20569;-64
2022/04/12 12:25:04;;;;;;;1.40;1.30;;;20.90;99.90;;;;;;5053709;28;20216;-64
2022/04/12 12:27:35;;;;;;;2.05;1.85;;;21.00;99.90;;;;;;5053893;28;20165;-65
2022/04/12 12:30:09;;;;;;;1.65;1.55;;;21.20;99.90;;;;;;5053938;28;20565;-64
2022/04/12 12:32:37;;;;;;;2.78;1.45;;;21.30;99.90;;;;;;5053812;28;20223;-64
2022/04/12 12:35:14;;;;;;;1.83;1.27;;;21.30;99.90;;;;;;5053694;28;20176;-64
2022/04/12 12:37:42;;;;;;;7.75;1.30;;;21.50;99.90;;;;;;5053770;28;20168;-64
2022/04/12 12:40:24;;;;;;;2.08;1.40;;;21.80;99.90;;;;;;5053712;28;20171;-64
2022/04/12 12:42:51;;;;;;;1.25;1.15;;;21.90;99.90;;;;;;5053651;28;20168;-64
2022/04/12 12:45:25;;;;;;;1.50;1.40;;;22.00;99.90;;;;;;5053481;28;20207;-65
2022/04/12 12:47:53;;;;;;;4.25;1.70;;;22.00;99.90;;;;;;5053621;28;20169;-64
2022/04/12 12:50:20;;;;;;;1.30;1.30;;;22.10;99.90;;;;;;5053577;28;20652;-65
2022/04/12 12:52:47;;;;;;;2.55;1.35;;;22.20;99.90;;;;;;5053472;28;20603;-64
2022/04/12 12:55:19;;;;;;;1.67;1.60;;;22.10;99.90;;;;;;5053568;28;20175;-64
2022/04/12 12:57:46;;;;;;;6.38;1.70;;;22.00;99.90;;;;;;5053278;28;20168;-64
2022/04/12 13:00:13;;;;;;;4.28;1.58;;;21.70;99.90;;;;;;5053284;28;20161;-64
2022/04/12 13:02:40;;;;;;;3.17;1.40;;;21.60;99.90;;;;;;5053301;28;20169;-64
2022/04/12 13:05:11;;;;;;;3.45;1.52;;;21.50;99.90;;;;;;5053266;28;20199;-64
2022/04/12 13:07:38;;;;;;;3.83;1.42;;;21.50;99.90;;;;;;5053361;28;20169;-64
2022/04/12 13:10:10;;;;;;;2.47;1.75;;;21.60;99.90;;;;;;5053290;28;20176;-64
2022/04/12 13:12:36;;;;;;;1.55;1.42;;;21.60;99.90;;;;;;5053255;28;20214;-65
2022/04/12 13:15:03;;;;;;;4.05;1.67;;;21.70;99.90;;;;;;5053201;28;20638;-64
2022/04/12 13:17:29;;;;;;;4.88;1.92;;;21.80;99.90;;;;;;5053164;28;20172;-64
2022/04/12 13:19:56;;;;;;;1.50;1.40;;;21.90;99.90;;;;;;5053220;28;20173;-64
2022/04/12 13:22:23;;;;;;;3.88;1.15;;;22.00;99.90;;;;;;5053267;28;20567;-65
2022/04/12 13:24:49;;;;;;;3.55;2.17;;;22.00;99.90;;;;;;5052744;28;20696;-64
2022/04/12 13:27:14;;;;;;;1.60;1.50;;;22.00;99.90;;;;;;5053044;28;20180;-65
2022/04/12 13:29:40;;;;;;;2.83;1.58;;;22.10;99.90;;;;;;5053061;28;20175;-64
2022/04/12 13:32:06;;;;;;;1.52;1.40;;;21.90;99.90;;;;;;5053058;28;20168;-64
2022/04/12 13:34:32;;;;;;;1.30;1.20;;;21.90;99.90;;;;;;5051821;28;20168;-64
2022/04/12 13:36:57;;;;;;;2.42;1.35;;;21.80;99.90;;;;;;5053030;28;20243;-64
2022/04/12 13:39:23;;;;;;;3.17;1.98;;;21.90;99.90;;;;;;5052916;28;20617;-65
2022/04/12 13:41:49;;;;;;;1.20;1.20;;;22.00;99.90;;;;;;5053001;28;20204;-65
2022/04/12 13:44:14;;;;;;;1.20;1.20;;;22.20;99.90;;;;;;5052867;28;20223;-64
2022/04/12 13:46:40;;;;;;;7.07;2.00;;;22.30;99.90;;;;;;5052768;28;20663;-64
2022/04/12 13:49:06;;;;;;;1.60;1.50;;;22.40;99.90;;;;;;5052960;28;20177;-64
2022/04/12 13:51:32;;;;;;;3.75;1.50;;;22.50;99.90;;;;;;5052809;28;20558;-64
2022/04/12 13:53:58;;;;;;;3.28;2.08;;;22.60;99.90;;;;;;5052827;28;20304;-64
2022/04/12 13:56:23;;;;;;;1.63;1.40;;;22.70;99.90;;;;;;5052880;28;20179;-65
2022/04/12 13:58:49;;;;;;;2.47;1.33;;;22.70;99.90;;;;;;5052804;28;20176;-65
2022/04/12 14:01:15;;;;;;;3.10;1.40;;;22.60;99.90;;;;;;5051455;28;20184;-64
2022/04/12 14:03:40;;;;;;;1.50;1.40;;;22.80;99.90;;;;;;5052622;28;20192;-64
2022/04/12 14:06:06;;;;;;;2.05;1.50;;;22.90;99.90;;;;;;5052775;28;20169;-65
2022/04/12 14:08:33;;;;;;;1.42;1.33;;;23.00;99.90;;;;;;5052609;28;20173;-64
2022/04/12 14:11:00;;;;;;;1.67;1.58;;;23.00;99.90;;;;;;5054381;28;20531;-65
2022/04/12 14:13:27;;;;;;;1.92;1.50;;;23.10;99.90;;;;;;5056417;28;20167;-65
2022/04/12 14:15:53;;;;;;;1.17;1.05;;;23.10;99.90;;;;;;5056390;28;20157;-64
2022/04/12 14:18:20;;;;;;;1.50;1.40;;;23.20;99.90;;;;;;5056335;28;20176;-64
2022/04/12 14:20:46;;;;;;;1.17;1.17;;;23.50;99.90;;;;;;5056378;28;20161;-65
2022/04/12 14:23:12;;;;;;;2.78;1.30;;;23.70;99.90;;;;;;5055951;28;20168;-65
2022/04/12 14:25:39;;;;;;;1.23;1.10;;;23.90;99.90;;;;;;5056251;28;20251;-65
2022/04/12 14:28:08;;;;;;;1.70;1.48;;;23.90;99.90;;;;;;5054950;28;20164;-65
2022/04/12 14:30:38;;;;;;;1.60;1.48;;;23.90;99.90;;;;;;5056131;28;20226;-64
2022/04/12 14:33:05;;;;;;;2.10;1.48;;;24.00;99.90;;;;;;5056315;28;20169;-64
2022/04/12 14:35:31;;;;;;;1.80;1.65;;;24.00;99.90;;;;;;5056061;28;20256;-65
2022/04/12 14:37:56;;;;;;;1.35;1.35;;;24.10;99.90;;;;;;5055942;28;20692;-65
2022/04/12 14:40:22;;;;;;;1.42;1.33;;;24.20;99.90;;;;;;5055922;28;20255;-64
2022/04/12 14:42:48;;;;;;;2.78;1.65;;;24.30;99.90;;;;;;5055970;28;20298;-64
2022/04/12 14:45:13;;;;;;;1.65;1.20;;;24.30;99.90;;;;;;5055816;28;20588;-65
2022/04/12 14:47:39;;;;;;;2.50;1.83;;;24.10;99.90;;;;;;5054626;28;20168;-64
2022/04/12 14:50:05;;;;;;;1.35;1.30;;;24.00;99.90;;;;;;5055771;28;20160;-64
2022/04/12 14:52:32;;;;;;;2.90;1.40;;;23.90;99.90;;;;;;5055684;28;20157;-64
2022/04/12 14:55:00;;;;;;;1.50;1.40;;;23.90;99.90;;;;;;5055622;28;20184;-64
2022/04/12 14:57:26;;;;;;;2.70;1.17;;;23.90;99.90;;;;;;5055656;28;20171;-65
2022/04/12 14:59:53;;;;;;;6.80;1.42;;;23.90;99.90;;;;;;5055669;28;20164;-64
2022/04/12 15:02:18;;;;;;;1.77;1.67;;;23.90;99.90;;;;;;5055596;28;20263;-64
2022/04/12 15:04:44;;;;;;;2.58;1.20;;;23.80;99.90;;;;;;5055446;28;20283;-64
2022/04/12 15:07:10;;;;;;;1.10;1.10;;;23.70;99.90;;;;;;5055527;28;20172;-64
2022/04/12 15:09:35;;;;;;;1.92;1.20;;;23.50;99.90;;;;;;5055353;28;20193;-64
2022/04/12 15:12:01;;;;;;;2.00;1.02;;;23.40;99.90;;;;;;5054060;28;20529;-64
2022/04/12 15:14:28;;;;;;;2.25;1.20;;;23.40;99.90;;;;;;5053944;28;20176;-64
2022/04/12 15:16:54;;;;;;;3.67;1.30;;;23.50;99.90;;;;;;5054040;28;20177;-64
2022/04/12 15:19:19;;;;;;;1.67;1.25;;;23.40;99.90;;;;;;5055168;28;20511;-64
2022/04/12 15:21:45;;;;;;;1.23;1.00;;;23.40;99.90;;;;;;5055117;28;20184;-64
2022/04/12 15:24:11;;;;;;;1.33;1.23;;;23.30;99.90;;;;;;5054844;28;20217;-64
2022/04/12 15:26:37;;;;;;;3.72;1.35;;;23.30;99.90;;;;;;5055112;28;20176;-64
2022/04/12 15:29:03;;;;;;;1.42;1.42;;;23.30;99.90;;;;;;5055064;28;20168;-64
2022/04/12 15:31:29;;;;;;;1.30;1.20;;;23.40;99.90;;;;;;5055040;28;20161;-65
2022/04/12 15:33:55;;;;;;;2.70;1.30;;;23.30;99.90;;;;;;5054828;28;20454;-64
2022/04/12 15:36:21;;;;;;;2.28;1.50;;;23.10;99.90;;;;;;5054920;28;20180;-64
2022/04/12 15:38:52;;;;;;;1.38;1.27;;;23.00;99.90;;;;;;5054898;28;20252;-64
2022/04/12 15:41:18;;;;;;;4.25;1.50;;;23.00;99.90;;;;;;5054813;28;20168;-64
2022/04/12 15:43:44;;;;;;;1.85;1.02;;;23.00;99.90;;;;;;5054686;28;20258;-64
2022/04/12 15:46:14;;;;;;;1.73;1.63;;;23.20;99.90;;;;;;5054660;28;20653;-64
2022/04/12 15:48:40;;;;;;;1.70;1.60;;;23.30;99.90;;;;;;5054603;28;20222;-64
2022/04/12 15:51:05;;;;;;;3.33;1.48;;;23.50;99.90;;;;;;5054608;28;20168;-64
2022/04/12 15:53:31;;;;;;;2.25;1.42;;;23.50;99.90;;;;;;5054628;28;20229;-64
2022/04/12 15:55:56;;;;;;;1.52;1.42;;;23.40;99.90;;;;;;5054539;28;20637;-64
2022/04/12 15:58:22;;;;;;;2.00;1.90;;;23.10;99.90;;;;;;5054451;28;20196;-64
2022/04/12 16:00:48;;;;;;;2.67;1.58;;;23.10;99.90;;;;;;5054459;28;20180;-64
2022/04/12 16:03:13;;;;;;;1.88;1.42;;;23.10;99.90;;;;;;5054226;28;20165;-64
2022/04/12 16:05:39;;;;;;;1.50;1.40;;;23.10;99.90;;;;;;5054349;28;20164;-64
2022/04/12 16:08:04;;;;;;;1.58;1.48;;;22.90;99.90;;;;;;5054282;28;20421;-64
2022/04/12 16:10:30;;;;;;;1.55;1.45;;;22.80;99.90;;;;;;5054224;28;20306;-64
2022/04/12 16:12:56;;;;;;;2.22;1.50;;;22.70;99.90;;;;;;5054192;28;20196;-64
2022/04/12 16:15:22;;;;;;;3.28;2.95;;;22.50;99.90;;;;;;5054171;28;20627;-64
2022/04/12 16:17:48;;;;;;;1.45;1.35;;;22.60;99.90;;;;;;5054124;28;20172;-64
2022/04/12 16:20:13;;;;;;;4.30;1.70;;;22.90;99.90;;;;;;5054088;28;20234;-65
2022/04/12 16:22:39;;;;;;;1.45;1.30;;;23.30;99.90;;;;;;5054051;28;20222;-64
2022/04/12 16:25:05;;;;;;;1.40;1.40;;;23.50;99.90;;;;;;5053721;28;20220;-64
2022/04/12 16:27:31;;;;;;;1.83;1.40;;;23.50;99.90;;;;;;5053940;28;20251;-64
2022/04/12 16:29:57;;;;;;;3.00;1.58;;;23.70;99.90;;;;;;5053998;28;20243;-64
2022/04/12 16:32:23;;;;;;;4.50;1.30;;;23.80;99.90;;;;;;5053783;28;20540;-64
2022/04/12 16:34:50;;;;;;;2.78;1.17;;;23.90;99.90;;;;;;5053324;28;20173;-64
2022/04/12 16:37:15;;;;;;;1.45;1.35;;;23.70;99.90;;;;;;5053994;28;20226;-64
2022/04/12 16:39:41;;;;;;;1.42;1.40;;;23.60;99.90;;;;;;5053626;28;20609;-64
2022/04/12 16:42:07;;;;;;;2.33;1.40;;;23.70;99.90;;;;;;5053734;28;20180;-64
2022/04/12 16:44:33;;;;;;;3.08;1.70;;;23.80;99.90;;;;;;5053677;28;20274;-64
2022/04/12 16:46:59;;;;;;;2.15;1.30;;;23.80;99.90;;;;;;5053459;28;20223;-64
2022/04/12 16:49:25;;;;;;;2.15;1.70;;;23.70;99.90;;;;;;5053556;28;20196;-64
2022/04/12 16:51:51;;;;;;;1.63;1.40;;;23.60;99.90;;;;;;5052298;28;20575;-64
2022/04/12 16:54:18;;;;;;;4.40;1.70;;;23.40;99.90;;;;;;5053499;28;20173;-64
2022/04/12 16:56:44;;;;;;;1.48;1.38;;;23.20;99.90;;;;;;5053461;28;20571;-64
2022/04/12 16:59:09;;;;;;;1.30;1.30;;;22.90;99.90;;;;;;5053376;28;20168;-64
2022/04/12 17:01:35;;;;;;;2.85;1.33;;;22.70;99.90;;;;;;5053103;28;20175;-64
2022/04/12 17:04:01;;;;;;;1.15;1.15;;;22.50;99.90;;;;;;5053300;28;20538;-64
2022/04/12 17:06:26;;;;;;;2.85;1.40;;;22.30;99.90;;;;;;5052069;28;20179;-64
2022/04/12 17:08:53;;;;;;;3.50;1.98;;;22.00;99.90;;;;;;5052038;28;20179;-64
2022/04/12 17:11:19;;;;;;;1.48;1.38;;;21.80;99.90;;;;;;5053268;28;20570;-64
2022/04/12 17:13:45;;;;;;;3.92;1.67;;;21.70;99.90;;;;;;5053287;28;20180;-64
2022/04/12 17:16:11;;;;;;;1.60;1.50;;;21.50;99.90;;;;;;5053208;28;20173;-64
2022/04/12 17:18:37;;;;;;;4.30;1.60;;;21.40;99.90;;;;;;5053371;28;20536;-64
2022/04/12 17:21:03;;;;;;;6.40;1.30;;;21.30;99.90;;;;;;5053188;28;20173;-64
2022/04/12 17:23:28;;;;;;;1.70;1.50;;;21.10;99.90;;;;;;5052928;28;20231;-64
2022/04/12 17:25:54;;;;;;;2.75;1.75;;;20.90;99.90;;;;;;5053191;28;20168;-64
2022/04/12 17:28:20;;;;;;;2.00;1.42;;;20.80;99.90;;;;;;5053125;28;20285;-64
2022/04/12 17:30:45;;;;;;;6.93;1.77;;;20.60;99.90;;;;;;5052978;28;20242;-64
2022/04/12 17:33:11;;;;;;;2.83;1.77;;;20.50;99.90;;;;;;5053043;28;20199;-64
2022/04/12 17:35:39;;;;;;;5.82;1.60;;;20.30;99.90;;;;;;5053108;28;20177;-64
2022/04/12 17:38:06;;;;;;;1.58;1.45;;;20.20;99.90;;;;;;5053035;28;20510;-64
2022/04/12 17:40:31;;;;;;;2.45;1.70;;;20.00;99.90;;;;;;5053008;28;20171;-64
2022/04/12 17:42:57;;;;;;;2.47;1.50;;;19.80;99.90;;;;;;5052864;28;20176;-64
2022/04/12 17:45:23;;;;;;;2.42;1.60;;;19.70;99.90;;;;;;5052239;28;20207;-64
2022/04/12 17:47:48;;;;;;;2.72;1.65;;;19.60;99.90;;;;;;5055575;28;20179;-64
2022/04/12 17:50:14;;;;;;;2.80;1.90;;;19.50;99.90;;;;;;5056445;28;20172;-64
2022/04/12 17:52:40;;;;;;;3.08;1.80;;;19.30;99.90;;;;;;5056485;28;20626;-64
2022/04/12 17:55:06;;;;;;;3.15;1.90;;;19.20;99.90;;;;;;5056623;28;20264;-64
2022/04/12 17:57:31;;;;;;;1.85;1.75;;;19.10;99.90;;;;;;5056585;28;20168;-64
2022/04/12 17:59:58;;;;;;;2.08;1.85;;;19.00;99.90;;;;;;5056625;28;20592;-64
2022/04/12 18:02:24;;;;;;;2.70;1.60;;;18.90;99.90;;;;;;5056937;28;20188;-64
2022/04/12 18:04:55;;;;;;;1.92;1.70;;;18.80;99.90;;;;;;5056729;28;20192;-64
2022/04/12 18:07:21;;;;;;;1.70;1.60;;;18.70;99.90;;;;;;5056811;28;20165;-64
2022/04/12 18:09:46;;;;;;;4.22;2.17;;;18.60;99.90;;;;;;5056730;28;20169;-64
2022/04/12 18:12:12;;;;;;;3.60;2.40;;;18.50;99.90;;;;;;5056749;28;20169;-64
2022/04/12 18:14:37;;;;;;;2.17;1.98;;;18.40;99.90;;;;;;5056837;28;20173;-64
